<?xml version="1.0" encoding="UTF-8" standalone="no" ?>
<gpx xmlns="http://www.topografix.com/GPX/1/1" xmlns:xsi="http://www.w3.org/2001/XMLSchema-instance" xsi:schemaLocation="http://www.topografix.com/GPX/1/1 http://www.topografix.com/GPX/1/1/gpx.xsd" version="1.1" creator="VisuGPX - https://www.visugpx.com">
  <metadata>
    <name>Sortie Moto</name>
  </metadata>
  <trk>
    <name><![CDATA[Journal actif: 2020-04-23 16:15]]></name>
    <trkseg>
      <trkpt lat="46.06719" lon="6.3126">
        <ele>564.43</ele>
        <time>2020-04-23T14:15:33Z</time>
      </trkpt>
      <trkpt lat="46.0672" lon="6.31268">
        <ele>563.95</ele>
        <time>2020-04-23T14:15:34Z</time>
      </trkpt>
      <trkpt lat="46.06725" lon="6.31269">
        <ele>563.95</ele>
        <time>2020-04-23T14:15:35Z</time>
      </trkpt>
      <trkpt lat="46.06728" lon="6.3127">
        <ele>563.95</ele>
        <time>2020-04-23T14:15:36Z</time>
      </trkpt>
      <trkpt lat="46.06728" lon="6.3127">
        <ele>563.95</ele>
        <time>2020-04-23T14:15:37Z</time>
      </trkpt>
      <trkpt lat="46.06735" lon="6.31287">
        <ele>563.95</ele>
        <time>2020-04-23T14:15:38Z</time>
      </trkpt>
      <trkpt lat="46.06741" lon="6.31304">
        <ele>564.43</ele>
        <time>2020-04-23T14:15:39Z</time>
      </trkpt>
      <trkpt lat="46.06742" lon="6.31305">
        <ele>564.43</ele>
        <time>2020-04-23T14:15:40Z</time>
      </trkpt>
      <trkpt lat="46.06752" lon="6.3138">
        <ele>564.43</ele>
        <time>2020-04-23T14:15:45Z</time>
      </trkpt>
      <trkpt lat="46.06758" lon="6.31397">
        <ele>564.43</ele>
        <time>2020-04-23T14:15:46Z</time>
      </trkpt>
      <trkpt lat="46.06763" lon="6.31407">
        <ele>564.43</ele>
        <time>2020-04-23T14:15:47Z</time>
      </trkpt>
      <trkpt lat="46.0677" lon="6.3142">
        <ele>564.43</ele>
        <time>2020-04-23T14:15:48Z</time>
      </trkpt>
      <trkpt lat="46.06777" lon="6.31436">
        <ele>564.43</ele>
        <time>2020-04-23T14:15:49Z</time>
      </trkpt>
      <trkpt lat="46.06784" lon="6.31454">
        <ele>564.91</ele>
        <time>2020-04-23T14:15:50Z</time>
      </trkpt>
      <trkpt lat="46.0679" lon="6.31471">
        <ele>564.91</ele>
        <time>2020-04-23T14:15:51Z</time>
      </trkpt>
      <trkpt lat="46.06799" lon="6.315">
        <ele>564.91</ele>
        <time>2020-04-23T14:15:53Z</time>
      </trkpt>
      <trkpt lat="46.06831" lon="6.316">
        <ele>564.43</ele>
        <time>2020-04-23T14:16:00Z</time>
      </trkpt>
      <trkpt lat="46.06894" lon="6.31802">
        <ele>559.14</ele>
        <time>2020-04-23T14:16:13Z</time>
      </trkpt>
      <trkpt lat="46.06901" lon="6.31825">
        <ele>559.14</ele>
        <time>2020-04-23T14:16:14Z</time>
      </trkpt>
      <trkpt lat="46.06909" lon="6.31849">
        <ele>559.62</ele>
        <time>2020-04-23T14:16:15Z</time>
      </trkpt>
      <trkpt lat="46.06944" lon="6.3196">
        <ele>555.3</ele>
        <time>2020-04-23T14:16:23Z</time>
      </trkpt>
      <trkpt lat="46.06982" lon="6.32087">
        <ele>548.09</ele>
        <time>2020-04-23T14:16:32Z</time>
      </trkpt>
      <trkpt lat="46.06988" lon="6.32097">
        <ele>546.65</ele>
        <time>2020-04-23T14:16:33Z</time>
      </trkpt>
      <trkpt lat="46.06992" lon="6.32104">
        <ele>546.17</ele>
        <time>2020-04-23T14:16:34Z</time>
      </trkpt>
      <trkpt lat="46.07" lon="6.32108">
        <ele>545.2</ele>
        <time>2020-04-23T14:16:35Z</time>
      </trkpt>
      <trkpt lat="46.07008" lon="6.32111">
        <ele>544.24</ele>
        <time>2020-04-23T14:16:36Z</time>
      </trkpt>
      <trkpt lat="46.07014" lon="6.32114">
        <ele>543.28</ele>
        <time>2020-04-23T14:16:37Z</time>
      </trkpt>
      <trkpt lat="46.07017" lon="6.32115">
        <ele>533.67</ele>
        <time>2020-04-23T14:16:38Z</time>
      </trkpt>
      <trkpt lat="46.07026" lon="6.32127">
        <ele>525.98</ele>
        <time>2020-04-23T14:16:41Z</time>
      </trkpt>
      <trkpt lat="46.07026" lon="6.3213">
        <ele>524.06</ele>
        <time>2020-04-23T14:16:42Z</time>
      </trkpt>
      <trkpt lat="46.07026" lon="6.32137">
        <ele>520.69</ele>
        <time>2020-04-23T14:16:43Z</time>
      </trkpt>
      <trkpt lat="46.07029" lon="6.32217">
        <ele>515.4</ele>
        <time>2020-04-23T14:16:47Z</time>
      </trkpt>
      <trkpt lat="46.07034" lon="6.32244">
        <ele>514.92</ele>
        <time>2020-04-23T14:16:48Z</time>
      </trkpt>
      <trkpt lat="46.07039" lon="6.32272">
        <ele>513.96</ele>
        <time>2020-04-23T14:16:49Z</time>
      </trkpt>
      <trkpt lat="46.07096" lon="6.32534">
        <ele>501.95</ele>
        <time>2020-04-23T14:16:59Z</time>
      </trkpt>
      <trkpt lat="46.07112" lon="6.32705">
        <ele>493.77</ele>
        <time>2020-04-23T14:17:07Z</time>
      </trkpt>
      <trkpt lat="46.07114" lon="6.32732">
        <ele>491.85</ele>
        <time>2020-04-23T14:17:09Z</time>
      </trkpt>
      <trkpt lat="46.07108" lon="6.3275">
        <ele>490.89</ele>
        <time>2020-04-23T14:17:10Z</time>
      </trkpt>
      <trkpt lat="46.07108" lon="6.32757">
        <ele>489.93</ele>
        <time>2020-04-23T14:17:11Z</time>
      </trkpt>
      <trkpt lat="46.07109" lon="6.32767">
        <ele>488.97</ele>
        <time>2020-04-23T14:17:12Z</time>
      </trkpt>
      <trkpt lat="46.07112" lon="6.32775">
        <ele>488.01</ele>
        <time>2020-04-23T14:17:13Z</time>
      </trkpt>
      <trkpt lat="46.07118" lon="6.32781">
        <ele>487.05</ele>
        <time>2020-04-23T14:17:14Z</time>
      </trkpt>
      <trkpt lat="46.07125" lon="6.32781">
        <ele>486.56</ele>
        <time>2020-04-23T14:17:15Z</time>
      </trkpt>
      <trkpt lat="46.07131" lon="6.32778">
        <ele>485.6</ele>
        <time>2020-04-23T14:17:16Z</time>
      </trkpt>
      <trkpt lat="46.07136" lon="6.32776">
        <ele>485.12</ele>
        <time>2020-04-23T14:17:17Z</time>
      </trkpt>
      <trkpt lat="46.07143" lon="6.32758">
        <ele>484.64</ele>
        <time>2020-04-23T14:17:18Z</time>
      </trkpt>
      <trkpt lat="46.0715" lon="6.32754">
        <ele>484.64</ele>
        <time>2020-04-23T14:17:19Z</time>
      </trkpt>
      <trkpt lat="46.07158" lon="6.32747">
        <ele>484.16</ele>
        <time>2020-04-23T14:17:20Z</time>
      </trkpt>
      <trkpt lat="46.07168" lon="6.32737">
        <ele>483.68</ele>
        <time>2020-04-23T14:17:21Z</time>
      </trkpt>
      <trkpt lat="46.07174" lon="6.32729">
        <ele>483.2</ele>
        <time>2020-04-23T14:17:22Z</time>
      </trkpt>
      <trkpt lat="46.07213" lon="6.32668">
        <ele>480.32</ele>
        <time>2020-04-23T14:17:28Z</time>
      </trkpt>
      <trkpt lat="46.07218" lon="6.32661">
        <ele>480.32</ele>
        <time>2020-04-23T14:17:29Z</time>
      </trkpt>
      <trkpt lat="46.07223" lon="6.32655">
        <ele>479.84</ele>
        <time>2020-04-23T14:17:30Z</time>
      </trkpt>
      <trkpt lat="46.07226" lon="6.32649">
        <ele>479.84</ele>
        <time>2020-04-23T14:17:31Z</time>
      </trkpt>
      <trkpt lat="46.07235" lon="6.32644">
        <ele>479.35</ele>
        <time>2020-04-23T14:17:32Z</time>
      </trkpt>
      <trkpt lat="46.07233" lon="6.32636">
        <ele>479.35</ele>
        <time>2020-04-23T14:17:33Z</time>
      </trkpt>
      <trkpt lat="46.07224" lon="6.32634">
        <ele>479.35</ele>
        <time>2020-04-23T14:17:34Z</time>
      </trkpt>
      <trkpt lat="46.07219" lon="6.32626">
        <ele>478.87</ele>
        <time>2020-04-23T14:17:35Z</time>
      </trkpt>
      <trkpt lat="46.07213" lon="6.32616">
        <ele>478.87</ele>
        <time>2020-04-23T14:17:36Z</time>
      </trkpt>
      <trkpt lat="46.07206" lon="6.32605">
        <ele>479.84</ele>
        <time>2020-04-23T14:17:37Z</time>
      </trkpt>
      <trkpt lat="46.072" lon="6.32591">
        <ele>479.84</ele>
        <time>2020-04-23T14:17:38Z</time>
      </trkpt>
      <trkpt lat="46.07196" lon="6.32578">
        <ele>480.32</ele>
        <time>2020-04-23T14:17:39Z</time>
      </trkpt>
      <trkpt lat="46.07192" lon="6.32547">
        <ele>481.28</ele>
        <time>2020-04-23T14:17:41Z</time>
      </trkpt>
      <trkpt lat="46.07187" lon="6.32516">
        <ele>482.72</ele>
        <time>2020-04-23T14:17:44Z</time>
      </trkpt>
      <trkpt lat="46.07186" lon="6.32509">
        <ele>483.2</ele>
        <time>2020-04-23T14:17:45Z</time>
      </trkpt>
      <trkpt lat="46.07185" lon="6.32505">
        <ele>483.2</ele>
        <time>2020-04-23T14:17:46Z</time>
      </trkpt>
      <trkpt lat="46.07177" lon="6.32503">
        <ele>483.68</ele>
        <time>2020-04-23T14:17:47Z</time>
      </trkpt>
      <trkpt lat="46.07175" lon="6.32507">
        <ele>484.16</ele>
        <time>2020-04-23T14:17:48Z</time>
      </trkpt>
      <trkpt lat="46.07172" lon="6.32515">
        <ele>484.64</ele>
        <time>2020-04-23T14:17:49Z</time>
      </trkpt>
      <trkpt lat="46.07168" lon="6.32525">
        <ele>485.12</ele>
        <time>2020-04-23T14:17:50Z</time>
      </trkpt>
      <trkpt lat="46.07164" lon="6.32534">
        <ele>485.6</ele>
        <time>2020-04-23T14:17:51Z</time>
      </trkpt>
      <trkpt lat="46.07161" lon="6.32542">
        <ele>486.08</ele>
        <time>2020-04-23T14:17:52Z</time>
      </trkpt>
      <trkpt lat="46.07159" lon="6.32547">
        <ele>486.56</ele>
        <time>2020-04-23T14:17:53Z</time>
      </trkpt>
      <trkpt lat="46.07157" lon="6.32551">
        <ele>486.56</ele>
        <time>2020-04-23T14:17:54Z</time>
      </trkpt>
      <trkpt lat="46.07148" lon="6.32557">
        <ele>487.53</ele>
        <time>2020-04-23T14:17:55Z</time>
      </trkpt>
      <trkpt lat="46.07146" lon="6.32555">
        <ele>487.53</ele>
        <time>2020-04-23T14:17:56Z</time>
      </trkpt>
      <trkpt lat="46.07146" lon="6.32555">
        <ele>489.45</ele>
        <time>2020-04-23T14:18:07Z</time>
      </trkpt>
      <trkpt lat="46.07148" lon="6.32549">
        <ele>496.66</ele>
        <time>2020-04-23T14:33:47Z</time>
      </trkpt>
      <trkpt lat="46.07153" lon="6.32562">
        <ele>503.87</ele>
        <time>2020-04-23T14:33:54Z</time>
      </trkpt>
      <trkpt lat="46.07161" lon="6.32541">
        <ele>504.83</ele>
        <time>2020-04-23T14:33:55Z</time>
      </trkpt>
      <trkpt lat="46.07165" lon="6.32533">
        <ele>505.31</ele>
        <time>2020-04-23T14:33:56Z</time>
      </trkpt>
      <trkpt lat="46.07168" lon="6.32523">
        <ele>504.35</ele>
        <time>2020-04-23T14:33:57Z</time>
      </trkpt>
      <trkpt lat="46.07172" lon="6.32515">
        <ele>503.87</ele>
        <time>2020-04-23T14:33:58Z</time>
      </trkpt>
      <trkpt lat="46.0719" lon="6.32527">
        <ele>503.87</ele>
        <time>2020-04-23T14:33:59Z</time>
      </trkpt>
      <trkpt lat="46.07198" lon="6.32523">
        <ele>503.87</ele>
        <time>2020-04-23T14:34:00Z</time>
      </trkpt>
      <trkpt lat="46.07187" lon="6.32517">
        <ele>502.43</ele>
        <time>2020-04-23T14:34:01Z</time>
      </trkpt>
      <trkpt lat="46.07188" lon="6.32522">
        <ele>500.02</ele>
        <time>2020-04-23T14:34:02Z</time>
      </trkpt>
      <trkpt lat="46.0719" lon="6.32531">
        <ele>499.54</ele>
        <time>2020-04-23T14:34:03Z</time>
      </trkpt>
      <trkpt lat="46.07192" lon="6.32543">
        <ele>498.58</ele>
        <time>2020-04-23T14:34:04Z</time>
      </trkpt>
      <trkpt lat="46.07193" lon="6.32557">
        <ele>498.1</ele>
        <time>2020-04-23T14:34:05Z</time>
      </trkpt>
      <trkpt lat="46.07195" lon="6.32572">
        <ele>498.1</ele>
        <time>2020-04-23T14:34:06Z</time>
      </trkpt>
      <trkpt lat="46.07196" lon="6.32583">
        <ele>497.14</ele>
        <time>2020-04-23T14:34:07Z</time>
      </trkpt>
      <trkpt lat="46.07201" lon="6.32593">
        <ele>496.66</ele>
        <time>2020-04-23T14:34:08Z</time>
      </trkpt>
      <trkpt lat="46.07205" lon="6.32603">
        <ele>495.7</ele>
        <time>2020-04-23T14:34:09Z</time>
      </trkpt>
      <trkpt lat="46.0721" lon="6.32612">
        <ele>495.22</ele>
        <time>2020-04-23T14:34:10Z</time>
      </trkpt>
      <trkpt lat="46.07215" lon="6.3262">
        <ele>494.74</ele>
        <time>2020-04-23T14:34:11Z</time>
      </trkpt>
      <trkpt lat="46.07219" lon="6.32627">
        <ele>494.26</ele>
        <time>2020-04-23T14:34:12Z</time>
      </trkpt>
      <trkpt lat="46.07225" lon="6.32638">
        <ele>494.26</ele>
        <time>2020-04-23T14:34:13Z</time>
      </trkpt>
      <trkpt lat="46.07226" lon="6.32648">
        <ele>494.26</ele>
        <time>2020-04-23T14:34:14Z</time>
      </trkpt>
      <trkpt lat="46.0721" lon="6.32673">
        <ele>494.26</ele>
        <time>2020-04-23T14:34:16Z</time>
      </trkpt>
      <trkpt lat="46.07201" lon="6.32686">
        <ele>494.74</ele>
        <time>2020-04-23T14:34:17Z</time>
      </trkpt>
      <trkpt lat="46.07191" lon="6.32701">
        <ele>495.22</ele>
        <time>2020-04-23T14:34:18Z</time>
      </trkpt>
      <trkpt lat="46.07156" lon="6.32748">
        <ele>497.14</ele>
        <time>2020-04-23T14:34:22Z</time>
      </trkpt>
      <trkpt lat="46.07147" lon="6.32757">
        <ele>498.1</ele>
        <time>2020-04-23T14:34:23Z</time>
      </trkpt>
      <trkpt lat="46.07146" lon="6.32757">
        <ele>498.58</ele>
        <time>2020-04-23T14:34:24Z</time>
      </trkpt>
      <trkpt lat="46.07134" lon="6.32748">
        <ele>500.02</ele>
        <time>2020-04-23T14:34:26Z</time>
      </trkpt>
      <trkpt lat="46.07125" lon="6.32739">
        <ele>500.5</ele>
        <time>2020-04-23T14:34:27Z</time>
      </trkpt>
      <trkpt lat="46.07123" lon="6.32726">
        <ele>500.98</ele>
        <time>2020-04-23T14:34:28Z</time>
      </trkpt>
      <trkpt lat="46.07122" lon="6.32712">
        <ele>501.46</ele>
        <time>2020-04-23T14:34:29Z</time>
      </trkpt>
      <trkpt lat="46.0712" lon="6.32697">
        <ele>502.43</ele>
        <time>2020-04-23T14:34:30Z</time>
      </trkpt>
      <trkpt lat="46.07106" lon="6.32553">
        <ele>506.75</ele>
        <time>2020-04-23T14:34:37Z</time>
      </trkpt>
      <trkpt lat="46.0706" lon="6.32354">
        <ele>513.48</ele>
        <time>2020-04-23T14:34:46Z</time>
      </trkpt>
      <trkpt lat="46.07025" lon="6.32186">
        <ele>516.37</ele>
        <time>2020-04-23T14:34:55Z</time>
      </trkpt>
      <trkpt lat="46.07027" lon="6.32102">
        <ele>516.85</ele>
        <time>2020-04-23T14:34:59Z</time>
      </trkpt>
      <trkpt lat="46.07064" lon="6.31961">
        <ele>516.85</ele>
        <time>2020-04-23T14:35:05Z</time>
      </trkpt>
      <trkpt lat="46.0717" lon="6.31742">
        <ele>516.37</ele>
        <time>2020-04-23T14:35:14Z</time>
      </trkpt>
      <trkpt lat="46.07298" lon="6.3155">
        <ele>516.37</ele>
        <time>2020-04-23T14:35:24Z</time>
      </trkpt>
      <trkpt lat="46.07387" lon="6.31448">
        <ele>517.81</ele>
        <time>2020-04-23T14:35:32Z</time>
      </trkpt>
      <trkpt lat="46.07398" lon="6.31432">
        <ele>518.77</ele>
        <time>2020-04-23T14:35:34Z</time>
      </trkpt>
      <trkpt lat="46.07403" lon="6.31423">
        <ele>518.77</ele>
        <time>2020-04-23T14:35:35Z</time>
      </trkpt>
      <trkpt lat="46.0741" lon="6.31413">
        <ele>518.77</ele>
        <time>2020-04-23T14:35:36Z</time>
      </trkpt>
      <trkpt lat="46.07432" lon="6.31401">
        <ele>519.25</ele>
        <time>2020-04-23T14:35:38Z</time>
      </trkpt>
      <trkpt lat="46.07435" lon="6.31394">
        <ele>519.25</ele>
        <time>2020-04-23T14:35:39Z</time>
      </trkpt>
      <trkpt lat="46.07443" lon="6.31379">
        <ele>519.25</ele>
        <time>2020-04-23T14:35:40Z</time>
      </trkpt>
      <trkpt lat="46.07445" lon="6.31369">
        <ele>519.25</ele>
        <time>2020-04-23T14:35:41Z</time>
      </trkpt>
      <trkpt lat="46.0744" lon="6.31351">
        <ele>519.73</ele>
        <time>2020-04-23T14:35:42Z</time>
      </trkpt>
      <trkpt lat="46.07436" lon="6.31338">
        <ele>520.21</ele>
        <time>2020-04-23T14:35:43Z</time>
      </trkpt>
      <trkpt lat="46.07435" lon="6.31323">
        <ele>520.69</ele>
        <time>2020-04-23T14:35:44Z</time>
      </trkpt>
      <trkpt lat="46.07435" lon="6.31308">
        <ele>520.69</ele>
        <time>2020-04-23T14:35:45Z</time>
      </trkpt>
      <trkpt lat="46.07437" lon="6.31291">
        <ele>521.17</ele>
        <time>2020-04-23T14:35:46Z</time>
      </trkpt>
      <trkpt lat="46.07442" lon="6.31274">
        <ele>521.17</ele>
        <time>2020-04-23T14:35:47Z</time>
      </trkpt>
      <trkpt lat="46.07473" lon="6.31087">
        <ele>524.54</ele>
        <time>2020-04-23T14:35:56Z</time>
      </trkpt>
      <trkpt lat="46.07475" lon="6.31064">
        <ele>525.02</ele>
        <time>2020-04-23T14:35:57Z</time>
      </trkpt>
      <trkpt lat="46.07488" lon="6.308">
        <ele>530.3</ele>
        <time>2020-04-23T14:36:07Z</time>
      </trkpt>
      <trkpt lat="46.07529" lon="6.3063">
        <ele>535.59</ele>
        <time>2020-04-23T14:36:14Z</time>
      </trkpt>
      <trkpt lat="46.07585" lon="6.3049">
        <ele>540.4</ele>
        <time>2020-04-23T14:36:22Z</time>
      </trkpt>
      <trkpt lat="46.07596" lon="6.30469">
        <ele>541.84</ele>
        <time>2020-04-23T14:36:24Z</time>
      </trkpt>
      <trkpt lat="46.076" lon="6.30461">
        <ele>542.32</ele>
        <time>2020-04-23T14:36:25Z</time>
      </trkpt>
      <trkpt lat="46.07615" lon="6.30459">
        <ele>543.28</ele>
        <time>2020-04-23T14:36:26Z</time>
      </trkpt>
      <trkpt lat="46.07625" lon="6.30452">
        <ele>544.24</ele>
        <time>2020-04-23T14:36:28Z</time>
      </trkpt>
      <trkpt lat="46.07627" lon="6.30447">
        <ele>544.72</ele>
        <time>2020-04-23T14:36:29Z</time>
      </trkpt>
      <trkpt lat="46.07629" lon="6.30439">
        <ele>545.2</ele>
        <time>2020-04-23T14:36:30Z</time>
      </trkpt>
      <trkpt lat="46.0763" lon="6.30437">
        <ele>545.69</ele>
        <time>2020-04-23T14:36:31Z</time>
      </trkpt>
      <trkpt lat="46.07628" lon="6.30416">
        <ele>546.17</ele>
        <time>2020-04-23T14:36:32Z</time>
      </trkpt>
      <trkpt lat="46.07632" lon="6.30408">
        <ele>546.65</ele>
        <time>2020-04-23T14:36:33Z</time>
      </trkpt>
      <trkpt lat="46.07638" lon="6.30397">
        <ele>547.13</ele>
        <time>2020-04-23T14:36:34Z</time>
      </trkpt>
      <trkpt lat="46.07645" lon="6.30385">
        <ele>547.61</ele>
        <time>2020-04-23T14:36:35Z</time>
      </trkpt>
      <trkpt lat="46.07654" lon="6.3037">
        <ele>548.57</ele>
        <time>2020-04-23T14:36:36Z</time>
      </trkpt>
      <trkpt lat="46.07697" lon="6.30296">
        <ele>550.01</ele>
        <time>2020-04-23T14:36:39Z</time>
      </trkpt>
      <trkpt lat="46.07757" lon="6.30187">
        <ele>555.3</ele>
        <time>2020-04-23T14:36:42Z</time>
      </trkpt>
      <trkpt lat="46.07772" lon="6.30147">
        <ele>557.22</ele>
        <time>2020-04-23T14:36:43Z</time>
      </trkpt>
      <trkpt lat="46.07784" lon="6.30106">
        <ele>559.62</ele>
        <time>2020-04-23T14:36:44Z</time>
      </trkpt>
      <trkpt lat="46.07793" lon="6.30064">
        <ele>561.55</ele>
        <time>2020-04-23T14:36:45Z</time>
      </trkpt>
      <trkpt lat="46.07797" lon="6.3002">
        <ele>563.95</ele>
        <time>2020-04-23T14:36:46Z</time>
      </trkpt>
      <trkpt lat="46.07798" lon="6.29975">
        <ele>566.35</ele>
        <time>2020-04-23T14:36:47Z</time>
      </trkpt>
      <trkpt lat="46.07795" lon="6.29932">
        <ele>568.28</ele>
        <time>2020-04-23T14:36:48Z</time>
      </trkpt>
      <trkpt lat="46.07791" lon="6.2989">
        <ele>571.16</ele>
        <time>2020-04-23T14:36:49Z</time>
      </trkpt>
      <trkpt lat="46.07783" lon="6.29851">
        <ele>573.56</ele>
        <time>2020-04-23T14:36:50Z</time>
      </trkpt>
      <trkpt lat="46.07774" lon="6.29815">
        <ele>575.97</ele>
        <time>2020-04-23T14:36:51Z</time>
      </trkpt>
      <trkpt lat="46.07764" lon="6.2978">
        <ele>577.89</ele>
        <time>2020-04-23T14:36:52Z</time>
      </trkpt>
      <trkpt lat="46.077" lon="6.29568">
        <ele>588.46</ele>
        <time>2020-04-23T14:36:57Z</time>
      </trkpt>
      <trkpt lat="46.07619" lon="6.29346">
        <ele>600</ele>
        <time>2020-04-23T14:37:02Z</time>
      </trkpt>
      <trkpt lat="46.07597" lon="6.29311">
        <ele>602.4</ele>
        <time>2020-04-23T14:37:03Z</time>
      </trkpt>
      <trkpt lat="46.07574" lon="6.29275">
        <ele>604.81</ele>
        <time>2020-04-23T14:37:04Z</time>
      </trkpt>
      <trkpt lat="46.07505" lon="6.29141">
        <ele>613.94</ele>
        <time>2020-04-23T14:37:08Z</time>
      </trkpt>
      <trkpt lat="46.07492" lon="6.29109">
        <ele>615.86</ele>
        <time>2020-04-23T14:37:09Z</time>
      </trkpt>
      <trkpt lat="46.07467" lon="6.29008">
        <ele>620.67</ele>
        <time>2020-04-23T14:37:12Z</time>
      </trkpt>
      <trkpt lat="46.07455" lon="6.28979">
        <ele>622.11</ele>
        <time>2020-04-23T14:37:13Z</time>
      </trkpt>
      <trkpt lat="46.07441" lon="6.28953">
        <ele>623.07</ele>
        <time>2020-04-23T14:37:14Z</time>
      </trkpt>
      <trkpt lat="46.07425" lon="6.28927">
        <ele>624.51</ele>
        <time>2020-04-23T14:37:15Z</time>
      </trkpt>
      <trkpt lat="46.07407" lon="6.28901">
        <ele>625.47</ele>
        <time>2020-04-23T14:37:16Z</time>
      </trkpt>
      <trkpt lat="46.07385" lon="6.28879">
        <ele>626.44</ele>
        <time>2020-04-23T14:37:17Z</time>
      </trkpt>
      <trkpt lat="46.0736" lon="6.28863">
        <ele>627.88</ele>
        <time>2020-04-23T14:37:18Z</time>
      </trkpt>
      <trkpt lat="46.07334" lon="6.28849">
        <ele>629.32</ele>
        <time>2020-04-23T14:37:19Z</time>
      </trkpt>
      <trkpt lat="46.07305" lon="6.28838">
        <ele>630.76</ele>
        <time>2020-04-23T14:37:20Z</time>
      </trkpt>
      <trkpt lat="46.07275" lon="6.28833">
        <ele>632.68</ele>
        <time>2020-04-23T14:37:21Z</time>
      </trkpt>
      <trkpt lat="46.07244" lon="6.28829">
        <ele>634.13</ele>
        <time>2020-04-23T14:37:22Z</time>
      </trkpt>
      <trkpt lat="46.07215" lon="6.28826">
        <ele>636.05</ele>
        <time>2020-04-23T14:37:23Z</time>
      </trkpt>
      <trkpt lat="46.07039" lon="6.28802">
        <ele>646.62</ele>
        <time>2020-04-23T14:37:30Z</time>
      </trkpt>
      <trkpt lat="46.07003" lon="6.28784">
        <ele>649.51</ele>
        <time>2020-04-23T14:37:32Z</time>
      </trkpt>
      <trkpt lat="46.06985" lon="6.28772">
        <ele>650.47</ele>
        <time>2020-04-23T14:37:33Z</time>
      </trkpt>
      <trkpt lat="46.06828" lon="6.28679">
        <ele>660.08</ele>
        <time>2020-04-23T14:37:42Z</time>
      </trkpt>
      <trkpt lat="46.06751" lon="6.2868">
        <ele>662.97</ele>
        <time>2020-04-23T14:37:46Z</time>
      </trkpt>
      <trkpt lat="46.06732" lon="6.28683">
        <ele>663.93</ele>
        <time>2020-04-23T14:37:47Z</time>
      </trkpt>
      <trkpt lat="46.06601" lon="6.28761">
        <ele>670.66</ele>
        <time>2020-04-23T14:37:55Z</time>
      </trkpt>
      <trkpt lat="46.06484" lon="6.28825">
        <ele>676.91</ele>
        <time>2020-04-23T14:38:03Z</time>
      </trkpt>
      <trkpt lat="46.06475" lon="6.28827">
        <ele>678.35</ele>
        <time>2020-04-23T14:38:05Z</time>
      </trkpt>
      <trkpt lat="46.06452" lon="6.28819">
        <ele>678.83</ele>
        <time>2020-04-23T14:38:06Z</time>
      </trkpt>
      <trkpt lat="46.06447" lon="6.28818">
        <ele>679.31</ele>
        <time>2020-04-23T14:38:07Z</time>
      </trkpt>
      <trkpt lat="46.06438" lon="6.28818">
        <ele>679.79</ele>
        <time>2020-04-23T14:38:08Z</time>
      </trkpt>
      <trkpt lat="46.06431" lon="6.28823">
        <ele>679.79</ele>
        <time>2020-04-23T14:38:09Z</time>
      </trkpt>
      <trkpt lat="46.06427" lon="6.28832">
        <ele>680.27</ele>
        <time>2020-04-23T14:38:10Z</time>
      </trkpt>
      <trkpt lat="46.06429" lon="6.28844">
        <ele>680.27</ele>
        <time>2020-04-23T14:38:11Z</time>
      </trkpt>
      <trkpt lat="46.06434" lon="6.28857">
        <ele>680.27</ele>
        <time>2020-04-23T14:38:12Z</time>
      </trkpt>
      <trkpt lat="46.06446" lon="6.28872">
        <ele>680.27</ele>
        <time>2020-04-23T14:38:13Z</time>
      </trkpt>
      <trkpt lat="46.06457" lon="6.28921">
        <ele>679.79</ele>
        <time>2020-04-23T14:38:15Z</time>
      </trkpt>
      <trkpt lat="46.06498" lon="6.29081">
        <ele>674.98</ele>
        <time>2020-04-23T14:38:22Z</time>
      </trkpt>
      <trkpt lat="46.06506" lon="6.29097">
        <ele>673.54</ele>
        <time>2020-04-23T14:38:23Z</time>
      </trkpt>
      <trkpt lat="46.06516" lon="6.29108">
        <ele>672.1</ele>
        <time>2020-04-23T14:38:24Z</time>
      </trkpt>
      <trkpt lat="46.06529" lon="6.29118">
        <ele>670.66</ele>
        <time>2020-04-23T14:38:25Z</time>
      </trkpt>
      <trkpt lat="46.06541" lon="6.29123">
        <ele>669.22</ele>
        <time>2020-04-23T14:38:26Z</time>
      </trkpt>
      <trkpt lat="46.06555" lon="6.29126">
        <ele>667.29</ele>
        <time>2020-04-23T14:38:27Z</time>
      </trkpt>
      <trkpt lat="46.06569" lon="6.29124">
        <ele>665.85</ele>
        <time>2020-04-23T14:38:28Z</time>
      </trkpt>
      <trkpt lat="46.06587" lon="6.2912">
        <ele>663.93</ele>
        <time>2020-04-23T14:38:29Z</time>
      </trkpt>
      <trkpt lat="46.06687" lon="6.29097">
        <ele>653.83</ele>
        <time>2020-04-23T14:38:35Z</time>
      </trkpt>
      <trkpt lat="46.067" lon="6.29099">
        <ele>652.39</ele>
        <time>2020-04-23T14:38:36Z</time>
      </trkpt>
      <trkpt lat="46.06708" lon="6.29106">
        <ele>650.95</ele>
        <time>2020-04-23T14:38:37Z</time>
      </trkpt>
      <trkpt lat="46.06715" lon="6.29115">
        <ele>649.99</ele>
        <time>2020-04-23T14:38:38Z</time>
      </trkpt>
      <trkpt lat="46.06718" lon="6.29128">
        <ele>648.55</ele>
        <time>2020-04-23T14:38:39Z</time>
      </trkpt>
      <trkpt lat="46.06718" lon="6.29145">
        <ele>647.59</ele>
        <time>2020-04-23T14:38:40Z</time>
      </trkpt>
      <trkpt lat="46.06711" lon="6.29159">
        <ele>646.62</ele>
        <time>2020-04-23T14:38:41Z</time>
      </trkpt>
      <trkpt lat="46.06703" lon="6.29176">
        <ele>645.18</ele>
        <time>2020-04-23T14:38:42Z</time>
      </trkpt>
      <trkpt lat="46.06693" lon="6.29191">
        <ele>644.22</ele>
        <time>2020-04-23T14:38:43Z</time>
      </trkpt>
      <trkpt lat="46.06628" lon="6.29292">
        <ele>637.49</ele>
        <time>2020-04-23T14:38:49Z</time>
      </trkpt>
      <trkpt lat="46.06619" lon="6.29307">
        <ele>636.53</ele>
        <time>2020-04-23T14:38:50Z</time>
      </trkpt>
      <trkpt lat="46.0659" lon="6.29355">
        <ele>632.68</ele>
        <time>2020-04-23T14:38:54Z</time>
      </trkpt>
      <trkpt lat="46.06582" lon="6.29368">
        <ele>632.2</ele>
        <time>2020-04-23T14:38:56Z</time>
      </trkpt>
      <trkpt lat="46.06581" lon="6.29372">
        <ele>632.2</ele>
        <time>2020-04-23T14:38:57Z</time>
      </trkpt>
      <trkpt lat="46.06585" lon="6.2938">
        <ele>631.72</ele>
        <time>2020-04-23T14:38:58Z</time>
      </trkpt>
      <trkpt lat="46.06597" lon="6.294">
        <ele>631.24</ele>
        <time>2020-04-23T14:39:00Z</time>
      </trkpt>
      <trkpt lat="46.06612" lon="6.29422">
        <ele>630.28</ele>
        <time>2020-04-23T14:39:02Z</time>
      </trkpt>
      <trkpt lat="46.06628" lon="6.29442">
        <ele>628.84</ele>
        <time>2020-04-23T14:39:04Z</time>
      </trkpt>
      <trkpt lat="46.06634" lon="6.2945">
        <ele>628.36</ele>
        <time>2020-04-23T14:39:05Z</time>
      </trkpt>
      <trkpt lat="46.06641" lon="6.29455">
        <ele>627.88</ele>
        <time>2020-04-23T14:39:06Z</time>
      </trkpt>
      <trkpt lat="46.06649" lon="6.29459">
        <ele>626.92</ele>
        <time>2020-04-23T14:39:07Z</time>
      </trkpt>
      <trkpt lat="46.06657" lon="6.29462">
        <ele>626.44</ele>
        <time>2020-04-23T14:39:08Z</time>
      </trkpt>
      <trkpt lat="46.06666" lon="6.29465">
        <ele>625.47</ele>
        <time>2020-04-23T14:39:09Z</time>
      </trkpt>
      <trkpt lat="46.06671" lon="6.29464">
        <ele>624.99</ele>
        <time>2020-04-23T14:39:10Z</time>
      </trkpt>
      <trkpt lat="46.06678" lon="6.29462">
        <ele>624.51</ele>
        <time>2020-04-23T14:39:11Z</time>
      </trkpt>
      <trkpt lat="46.06688" lon="6.29459">
        <ele>624.03</ele>
        <time>2020-04-23T14:39:12Z</time>
      </trkpt>
      <trkpt lat="46.06699" lon="6.29456">
        <ele>623.07</ele>
        <time>2020-04-23T14:39:13Z</time>
      </trkpt>
      <trkpt lat="46.06761" lon="6.29442">
        <ele>622.11</ele>
        <time>2020-04-23T14:39:19Z</time>
      </trkpt>
      <trkpt lat="46.06769" lon="6.29441">
        <ele>622.11</ele>
        <time>2020-04-23T14:39:20Z</time>
      </trkpt>
      <trkpt lat="46.06782" lon="6.29446">
        <ele>622.11</ele>
        <time>2020-04-23T14:39:21Z</time>
      </trkpt>
      <trkpt lat="46.06782" lon="6.29446">
        <ele>621.63</ele>
        <time>2020-04-23T14:39:22Z</time>
      </trkpt>
      <trkpt lat="46.06787" lon="6.2946">
        <ele>621.15</ele>
        <time>2020-04-23T14:39:23Z</time>
      </trkpt>
      <trkpt lat="46.06789" lon="6.29472">
        <ele>620.67</ele>
        <time>2020-04-23T14:39:24Z</time>
      </trkpt>
      <trkpt lat="46.06791" lon="6.29486">
        <ele>620.19</ele>
        <time>2020-04-23T14:39:25Z</time>
      </trkpt>
      <trkpt lat="46.06789" lon="6.29504">
        <ele>619.71</ele>
        <time>2020-04-23T14:39:26Z</time>
      </trkpt>
      <trkpt lat="46.06783" lon="6.29521">
        <ele>619.23</ele>
        <time>2020-04-23T14:39:27Z</time>
      </trkpt>
      <trkpt lat="46.06776" lon="6.29539">
        <ele>618.75</ele>
        <time>2020-04-23T14:39:28Z</time>
      </trkpt>
      <trkpt lat="46.06751" lon="6.296">
        <ele>616.34</ele>
        <time>2020-04-23T14:39:32Z</time>
      </trkpt>
      <trkpt lat="46.06749" lon="6.29615">
        <ele>615.38</ele>
        <time>2020-04-23T14:39:33Z</time>
      </trkpt>
      <trkpt lat="46.0675" lon="6.29628">
        <ele>614.9</ele>
        <time>2020-04-23T14:39:34Z</time>
      </trkpt>
      <trkpt lat="46.06755" lon="6.29642">
        <ele>613.94</ele>
        <time>2020-04-23T14:39:35Z</time>
      </trkpt>
      <trkpt lat="46.06762" lon="6.29658">
        <ele>613.46</ele>
        <time>2020-04-23T14:39:36Z</time>
      </trkpt>
      <trkpt lat="46.06809" lon="6.29775">
        <ele>607.21</ele>
        <time>2020-04-23T14:39:43Z</time>
      </trkpt>
      <trkpt lat="46.06815" lon="6.2979">
        <ele>606.25</ele>
        <time>2020-04-23T14:39:44Z</time>
      </trkpt>
      <trkpt lat="46.06824" lon="6.29799">
        <ele>605.29</ele>
        <time>2020-04-23T14:39:45Z</time>
      </trkpt>
      <trkpt lat="46.06835" lon="6.29805">
        <ele>604.33</ele>
        <time>2020-04-23T14:39:46Z</time>
      </trkpt>
      <trkpt lat="46.06847" lon="6.2981">
        <ele>603.36</ele>
        <time>2020-04-23T14:39:47Z</time>
      </trkpt>
      <trkpt lat="46.06859" lon="6.29816">
        <ele>602.4</ele>
        <time>2020-04-23T14:39:48Z</time>
      </trkpt>
      <trkpt lat="46.06896" lon="6.29832">
        <ele>600</ele>
        <time>2020-04-23T14:39:51Z</time>
      </trkpt>
      <trkpt lat="46.06908" lon="6.29844">
        <ele>599.04</ele>
        <time>2020-04-23T14:39:52Z</time>
      </trkpt>
      <trkpt lat="46.06919" lon="6.29855">
        <ele>598.56</ele>
        <time>2020-04-23T14:39:53Z</time>
      </trkpt>
      <trkpt lat="46.07003" lon="6.29943">
        <ele>590.39</ele>
        <time>2020-04-23T14:40:02Z</time>
      </trkpt>
      <trkpt lat="46.07005" lon="6.2995">
        <ele>589.91</ele>
        <time>2020-04-23T14:40:03Z</time>
      </trkpt>
      <trkpt lat="46.07004" lon="6.29957">
        <ele>588.95</ele>
        <time>2020-04-23T14:40:04Z</time>
      </trkpt>
      <trkpt lat="46.07003" lon="6.29965">
        <ele>587.98</ele>
        <time>2020-04-23T14:40:05Z</time>
      </trkpt>
      <trkpt lat="46.06997" lon="6.29978">
        <ele>587.02</ele>
        <time>2020-04-23T14:40:06Z</time>
      </trkpt>
      <trkpt lat="46.06988" lon="6.29995">
        <ele>586.06</ele>
        <time>2020-04-23T14:40:07Z</time>
      </trkpt>
      <trkpt lat="46.06941" lon="6.30083">
        <ele>582.22</ele>
        <time>2020-04-23T14:40:14Z</time>
      </trkpt>
      <trkpt lat="46.06936" lon="6.30093">
        <ele>581.73</ele>
        <time>2020-04-23T14:40:15Z</time>
      </trkpt>
      <trkpt lat="46.06908" lon="6.30151">
        <ele>580.29</ele>
        <time>2020-04-23T14:40:19Z</time>
      </trkpt>
      <trkpt lat="46.06901" lon="6.30166">
        <ele>580.29</ele>
        <time>2020-04-23T14:40:20Z</time>
      </trkpt>
      <trkpt lat="46.06893" lon="6.30179">
        <ele>579.81</ele>
        <time>2020-04-23T14:40:21Z</time>
      </trkpt>
      <trkpt lat="46.06886" lon="6.30192">
        <ele>579.33</ele>
        <time>2020-04-23T14:40:22Z</time>
      </trkpt>
      <trkpt lat="46.0688" lon="6.30204">
        <ele>578.85</ele>
        <time>2020-04-23T14:40:23Z</time>
      </trkpt>
      <trkpt lat="46.06874" lon="6.30214">
        <ele>578.37</ele>
        <time>2020-04-23T14:40:24Z</time>
      </trkpt>
      <trkpt lat="46.06872" lon="6.30232">
        <ele>577.89</ele>
        <time>2020-04-23T14:40:25Z</time>
      </trkpt>
      <trkpt lat="46.06865" lon="6.30243">
        <ele>577.41</ele>
        <time>2020-04-23T14:40:26Z</time>
      </trkpt>
      <trkpt lat="46.06861" lon="6.30259">
        <ele>577.41</ele>
        <time>2020-04-23T14:40:27Z</time>
      </trkpt>
      <trkpt lat="46.06861" lon="6.30271">
        <ele>576.93</ele>
        <time>2020-04-23T14:40:28Z</time>
      </trkpt>
      <trkpt lat="46.0686" lon="6.30298">
        <ele>576.45</ele>
        <time>2020-04-23T14:40:30Z</time>
      </trkpt>
      <trkpt lat="46.0686" lon="6.30311">
        <ele>576.45</ele>
        <time>2020-04-23T14:40:31Z</time>
      </trkpt>
      <trkpt lat="46.06859" lon="6.30323">
        <ele>576.45</ele>
        <time>2020-04-23T14:40:32Z</time>
      </trkpt>
      <trkpt lat="46.06859" lon="6.30337">
        <ele>576.45</ele>
        <time>2020-04-23T14:40:33Z</time>
      </trkpt>
      <trkpt lat="46.06858" lon="6.30351">
        <ele>575.97</ele>
        <time>2020-04-23T14:40:34Z</time>
      </trkpt>
      <trkpt lat="46.06858" lon="6.30365">
        <ele>575.97</ele>
        <time>2020-04-23T14:40:35Z</time>
      </trkpt>
      <trkpt lat="46.06857" lon="6.30384">
        <ele>575.97</ele>
        <time>2020-04-23T14:40:36Z</time>
      </trkpt>
      <trkpt lat="46.06852" lon="6.30398">
        <ele>575.97</ele>
        <time>2020-04-23T14:40:37Z</time>
      </trkpt>
      <trkpt lat="46.06847" lon="6.30414">
        <ele>575.97</ele>
        <time>2020-04-23T14:40:38Z</time>
      </trkpt>
      <trkpt lat="46.06841" lon="6.30429">
        <ele>575.97</ele>
        <time>2020-04-23T14:40:39Z</time>
      </trkpt>
      <trkpt lat="46.06837" lon="6.30442">
        <ele>575.97</ele>
        <time>2020-04-23T14:40:40Z</time>
      </trkpt>
      <trkpt lat="46.06833" lon="6.30453">
        <ele>576.45</ele>
        <time>2020-04-23T14:40:41Z</time>
      </trkpt>
      <trkpt lat="46.06829" lon="6.30463">
        <ele>576.93</ele>
        <time>2020-04-23T14:40:42Z</time>
      </trkpt>
      <trkpt lat="46.06826" lon="6.30473">
        <ele>578.37</ele>
        <time>2020-04-23T14:40:43Z</time>
      </trkpt>
      <trkpt lat="46.06803" lon="6.30539">
        <ele>580.77</ele>
        <time>2020-04-23T14:40:48Z</time>
      </trkpt>
      <trkpt lat="46.06797" lon="6.30555">
        <ele>581.25</ele>
        <time>2020-04-23T14:40:49Z</time>
      </trkpt>
      <trkpt lat="46.06769" lon="6.30648">
        <ele>579.33</ele>
        <time>2020-04-23T14:40:55Z</time>
      </trkpt>
      <trkpt lat="46.06746" lon="6.30701">
        <ele>578.85</ele>
        <time>2020-04-23T14:40:59Z</time>
      </trkpt>
      <trkpt lat="46.06741" lon="6.30712">
        <ele>578.85</ele>
        <time>2020-04-23T14:41:00Z</time>
      </trkpt>
      <trkpt lat="46.06725" lon="6.30741">
        <ele>579.33</ele>
        <time>2020-04-23T14:41:02Z</time>
      </trkpt>
      <trkpt lat="46.06718" lon="6.30755">
        <ele>579.33</ele>
        <time>2020-04-23T14:41:03Z</time>
      </trkpt>
      <trkpt lat="46.06685" lon="6.30815">
        <ele>579.81</ele>
        <time>2020-04-23T14:41:07Z</time>
      </trkpt>
      <trkpt lat="46.06678" lon="6.30829">
        <ele>579.81</ele>
        <time>2020-04-23T14:41:08Z</time>
      </trkpt>
      <trkpt lat="46.06646" lon="6.30888">
        <ele>579.81</ele>
        <time>2020-04-23T14:41:13Z</time>
      </trkpt>
      <trkpt lat="46.06642" lon="6.30893">
        <ele>579.33</ele>
        <time>2020-04-23T14:41:14Z</time>
      </trkpt>
      <trkpt lat="46.06644" lon="6.30909">
        <ele>579.33</ele>
        <time>2020-04-23T14:41:15Z</time>
      </trkpt>
      <trkpt lat="46.06649" lon="6.30911">
        <ele>578.85</ele>
        <time>2020-04-23T14:41:16Z</time>
      </trkpt>
      <trkpt lat="46.06656" lon="6.3091">
        <ele>578.85</ele>
        <time>2020-04-23T14:41:17Z</time>
      </trkpt>
      <trkpt lat="46.06663" lon="6.30908">
        <ele>578.85</ele>
        <time>2020-04-23T14:41:18Z</time>
      </trkpt>
      <trkpt lat="46.06682" lon="6.30903">
        <ele>578.37</ele>
        <time>2020-04-23T14:41:20Z</time>
      </trkpt>
      <trkpt lat="46.06691" lon="6.30901">
        <ele>578.37</ele>
        <time>2020-04-23T14:41:21Z</time>
      </trkpt>
      <trkpt lat="46.06698" lon="6.30892">
        <ele>578.37</ele>
        <time>2020-04-23T14:41:22Z</time>
      </trkpt>
      <trkpt lat="46.06704" lon="6.30882">
        <ele>578.37</ele>
        <time>2020-04-23T14:41:23Z</time>
      </trkpt>
      <trkpt lat="46.06711" lon="6.30871">
        <ele>577.89</ele>
        <time>2020-04-23T14:41:24Z</time>
      </trkpt>
      <trkpt lat="46.06719" lon="6.30859">
        <ele>577.41</ele>
        <time>2020-04-23T14:41:25Z</time>
      </trkpt>
      <trkpt lat="46.06726" lon="6.30847">
        <ele>576.93</ele>
        <time>2020-04-23T14:41:26Z</time>
      </trkpt>
      <trkpt lat="46.06744" lon="6.3082">
        <ele>575.49</ele>
        <time>2020-04-23T14:41:29Z</time>
      </trkpt>
      <trkpt lat="46.06748" lon="6.30814">
        <ele>574.53</ele>
        <time>2020-04-23T14:41:30Z</time>
      </trkpt>
      <trkpt lat="46.06751" lon="6.3081">
        <ele>574.53</ele>
        <time>2020-04-23T14:41:31Z</time>
      </trkpt>
      <trkpt lat="46.06752" lon="6.30808">
        <ele>574.04</ele>
        <time>2020-04-23T14:41:32Z</time>
      </trkpt>
      <trkpt lat="46.0675" lon="6.30804">
        <ele>572.6</ele>
        <time>2020-04-23T14:41:41Z</time>
      </trkpt>
    </trkseg>
  </trk>
</gpx>